createdAt,value
2019-01-19T00:01:29.767Z,13.20
2019-01-19T00:04:27.231Z,14.00
2019-01-19T00:07:21.225Z,14.30
2019-01-19T00:10:09.172Z,14.30
2019-01-19T00:12:58.735Z,14.40
2019-01-19T00:15:30.339Z,14.50
2019-01-19T00:18:04.938Z,14.40
2019-01-19T00:20:48.395Z,13.87
2019-01-19T00:23:25.645Z,14.10
2019-01-19T00:26:15.419Z,12.93
2019-01-19T00:28:53.102Z,13.50
2019-01-19T00:31:36.703Z,14.43
2019-01-19T00:34:34.140Z,13.07
2019-01-19T00:37:05.421Z,13.93
2019-01-19T00:39:45.854Z,13.40
2019-01-19T00:42:29.694Z,13.67
2019-01-19T00:45:20.769Z,12.40
2019-01-19T00:48:04.132Z,12.60
2019-01-19T00:50:47.667Z,12.43
2019-01-19T00:53:21.962Z,11.60
2019-01-19T00:56:05.375Z,12.67
2019-01-19T00:58:49.061Z,12.30
2019-01-19T01:01:38.837Z,12.90
2019-01-19T01:04:36.276Z,12.57
2019-01-19T01:07:10.975Z,13.17
2019-01-19T01:09:54.626Z,12.27
2019-01-19T01:12:32.094Z,12.90
2019-01-19T01:15:16.018Z,13.60
2019-01-19T01:17:46.063Z,13.63
2019-01-19T01:20:23.274Z,14.33
2019-01-19T01:22:57.813Z,14.60
2019-01-19T01:25:32.121Z,14.53
2019-01-19T01:28:18.770Z,15.40
2019-01-19T01:30:59.223Z,13.17
2019-01-19T01:33:48.694Z,15.07
2019-01-19T01:36:31.686Z,14.70
2019-01-19T01:39:15.401Z,15.00
2019-01-19T01:41:55.965Z,15.73
2019-01-19T01:44:33.411Z,15.47
2019-01-19T01:47:22.944Z,16.30
2019-01-19T01:50:00.277Z,15.00
2019-01-19T01:52:37.865Z,16.23
2019-01-19T01:55:12.429Z,14.90
2019-01-19T01:57:43.924Z,14.80
2019-01-19T02:00:25.355Z,13.83
2019-01-19T02:03:09.057Z,13.90
2019-01-19T02:05:52.494Z,14.10
2019-01-19T02:08:26.643Z,13.60
2019-01-19T02:10:58.272Z,13.17
2019-01-19T02:13:47.827Z,12.67
2019-01-19T02:16:31.315Z,13.33
2019-01-19T02:19:17.695Z,14.37
2019-01-19T02:21:58.332Z,15.00
2019-01-19T02:24:45.260Z,16.27
2019-01-19T02:27:44.254Z,15.10
2019-01-19T02:30:35.367Z,14.07
2019-01-19T02:33:12.581Z,14.13
2019-01-19T02:35:48.621Z,13.83
2019-01-19T02:38:26.449Z,14.70
2019-01-19T02:41:04.138Z,14.63
2019-01-19T02:43:58.541Z,13.70
2019-01-19T02:46:57.415Z,14.80
2019-01-19T02:50:02.423Z,14.93
2019-01-19T02:52:36.649Z,14.80
2019-01-19T02:55:29.213Z,14.50
2019-01-19T02:58:23.485Z,14.67
2019-01-19T03:01:01.089Z,13.50
2019-01-19T03:03:35.294Z,13.63
2019-01-19T03:06:09.571Z,13.97
2019-01-19T03:08:59.221Z,14.17
2019-01-19T03:11:30.826Z,13.77
2019-01-19T03:14:08.358Z,14.20
2019-01-19T03:17:03.705Z,13.97
2019-01-19T03:19:47.446Z,15.00
2019-01-19T03:22:27.886Z,13.87
2019-01-19T03:24:59.509Z,15.10
2019-01-19T03:27:31.124Z,13.77
2019-01-19T03:30:19.444Z,15.00
2019-01-19T03:32:54.023Z,15.30
2019-01-19T03:35:28.668Z,15.57
2019-01-19T03:38:12.547Z,14.37
2019-01-19T03:40:50.096Z,14.70
2019-01-19T03:43:30.547Z,14.60
2019-01-19T03:46:20.381Z,13.83
2019-01-19T03:48:57.629Z,15.70
2019-01-19T03:51:29.243Z,15.77
2019-01-19T03:54:00.875Z,16.10
2019-01-19T03:56:47.358Z,15.60
2019-01-19T03:59:27.829Z,15.47
2019-01-19T04:02:02.270Z,14.77
2019-01-19T04:04:58.387Z,14.83
2019-01-19T04:07:36.102Z,16.37
2019-01-19T04:10:16.393Z,16.13
2019-01-19T04:13:18.534Z,16.70
2019-01-19T04:15:58.697Z,16.50
2019-01-19T04:18:32.988Z,16.90
2019-01-19T04:21:25.656Z,16.77
2019-01-19T04:24:00.247Z,16.70
2019-01-19T04:26:31.633Z,17.53
2019-01-19T04:29:00.063Z,17.73
2019-01-19T04:31:28.525Z,19.50
2019-01-19T04:33:57.528Z,17.90
2019-01-19T04:36:26.154Z,16.03
2019-01-19T04:38:54.862Z,13.90
2019-01-19T04:41:23.306Z,14.57
2019-01-19T04:43:51.730Z,16.57
2019-01-19T04:46:20.188Z,16.20
2019-01-19T04:48:48.885Z,18.00
2019-01-19T04:51:17.343Z,18.07
2019-01-19T04:53:45.769Z,16.87
2019-01-19T04:56:14.233Z,14.50
2019-01-19T04:58:42.650Z,14.87
2019-01-19T05:01:11.104Z,16.30
2019-01-19T05:03:39.537Z,16.57
2019-01-19T05:06:12.547Z,16.03
2019-01-19T05:08:38.240Z,17.60
2019-01-19T05:11:06.668Z,18.33
2019-01-19T05:13:35.119Z,18.43
2019-01-19T05:16:03.554Z,17.00
2019-01-19T05:18:32.079Z,33.67
2019-01-19T05:21:00.583Z,32.33
2019-01-19T05:23:29.315Z,25.03
2019-01-19T05:25:57.740Z,14.40
2019-01-19T05:28:26.206Z,15.00
2019-01-19T05:30:54.630Z,15.20
2019-01-19T05:33:23.090Z,27.83
2019-01-19T05:35:51.593Z,21.90
2019-01-19T05:38:20.128Z,21.67
2019-01-19T05:40:48.550Z,16.40
2019-01-19T05:43:17.009Z,14.60
2019-01-19T05:45:45.445Z,33.20
2019-01-19T05:48:13.907Z,20.20
2019-01-19T05:50:42.407Z,17.43
2019-01-19T05:53:10.866Z,18.30
2019-01-19T05:55:39.303Z,14.63
2019-01-19T05:58:07.751Z,20.67
2019-01-19T06:00:36.551Z,27.27
2019-01-19T06:03:05.176Z,21.83
2019-01-19T06:05:33.679Z,24.20
2019-01-19T06:08:02.112Z,19.47
2019-01-19T06:10:30.600Z,18.27
2019-01-19T06:12:59.087Z,19.10
2019-01-19T06:15:27.535Z,16.60
2019-01-19T06:17:55.976Z,15.70
2019-01-19T06:20:24.428Z,13.70
2019-01-19T06:22:52.858Z,13.40
2019-01-19T06:25:21.326Z,13.40
2019-01-19T06:27:49.755Z,13.53
2019-01-19T06:30:22.677Z,18.33
2019-01-19T06:32:51.108Z,21.05
2019-01-19T06:35:19.633Z,19.10
2019-01-19T06:37:48.215Z,15.70
2019-01-19T06:40:18.208Z,12.60
2019-01-19T06:42:46.683Z,11.97
2019-01-19T06:45:18.303Z,11.63
2019-01-19T06:47:46.818Z,16.97
2019-01-19T06:50:16.821Z,18.60
2019-01-19T06:52:45.322Z,16.83
2019-01-19T06:55:19.050Z,17.57
2019-01-19T06:57:47.477Z,15.37
2019-01-19T07:00:17.936Z,14.07
2019-01-19T07:02:46.437Z,14.80
2019-01-19T07:05:15.234Z,13.60
2019-01-19T07:07:43.736Z,12.93
2019-01-19T07:10:20.773Z,10.73
2019-01-19T07:12:49.265Z,8.80
2019-01-19T07:15:17.791Z,9.30
2019-01-19T07:17:46.208Z,8.70
2019-01-19T07:20:17.191Z,9.43
2019-01-19T07:22:45.690Z,10.67
2019-01-19T07:25:14.423Z,10.80
2019-01-19T07:27:42.910Z,11.00
2019-01-19T07:30:17.769Z,11.37
2019-01-19T07:32:47.433Z,12.13
2019-01-19T07:35:17.518Z,12.97
2019-01-19T07:37:46.029Z,12.80
2019-01-19T07:40:17.191Z,12.80
2019-01-19T07:42:46.837Z,12.07
2019-01-19T07:45:16.247Z,11.40
2019-01-19T07:47:45.379Z,10.60
2019-01-19T07:50:18.247Z,11.20
2019-01-19T07:52:46.946Z,10.60
2019-01-19T07:55:17.222Z,11.13
2019-01-19T07:57:45.675Z,10.63
2019-01-19T08:00:17.403Z,11.23
2019-01-19T08:02:45.925Z,10.50
2019-01-19T08:05:14.355Z,10.33
2019-01-19T08:07:42.811Z,10.40
2019-01-19T08:10:16.736Z,10.47
2019-01-19T08:12:45.324Z,10.27
2019-01-19T08:15:19.511Z,10.13
2019-01-19T08:17:47.963Z,12.50
2019-01-19T08:20:16.528Z,11.80
2019-01-19T08:22:44.987Z,13.00
2019-01-19T08:25:13.958Z,12.43
2019-01-19T08:27:42.470Z,11.40
2019-01-19T08:30:17.658Z,10.77
2019-01-19T08:32:46.173Z,12.63
2019-01-19T08:35:16.507Z,12.40
2019-01-19T08:37:45.307Z,13.03
2019-01-19T08:40:19.231Z,12.80
2019-01-19T08:42:49.394Z,11.63
2019-01-19T08:45:18.686Z,11.13
2019-01-19T08:47:47.205Z,11.27
2019-01-19T08:50:15.703Z,10.93
2019-01-19T08:52:44.221Z,11.47
2019-01-19T08:55:12.653Z,13.13
2019-01-19T08:57:41.104Z,12.50
2019-01-19T09:00:12.697Z,12.97
2019-01-19T09:02:41.144Z,12.83
2019-01-19T09:05:10.909Z,12.47
2019-01-19T09:07:39.368Z,11.60
2019-01-19T09:10:16.801Z,11.90
2019-01-19T09:12:45.294Z,12.20
2019-01-19T09:15:19.101Z,12.23
2019-01-19T09:17:47.557Z,12.20
2019-01-19T09:20:18.746Z,13.27
2019-01-19T09:22:48.904Z,15.50
2019-01-19T09:25:17.505Z,18.53
2019-01-19T09:27:46.022Z,15.80
2019-01-19T09:30:20.111Z,15.00
2019-01-19T09:32:48.631Z,16.40
2019-01-19T09:35:17.427Z,16.93
2019-01-19T09:37:46.948Z,18.93
2019-01-19T09:40:17.665Z,19.10
2019-01-19T09:42:46.253Z,21.53
2019-01-19T09:45:18.725Z,18.60
2019-01-19T09:47:47.314Z,17.77
2019-01-19T09:50:18.144Z,17.07
2019-01-19T09:52:46.588Z,17.90
2019-01-19T09:55:15.160Z,17.10
2019-01-19T09:57:43.681Z,16.47
2019-01-19T10:00:21.130Z,16.97
2019-01-19T10:02:49.656Z,17.17
2019-01-19T10:05:22.889Z,18.13
2019-01-19T10:07:51.413Z,19.07
2019-01-19T10:10:19.985Z,19.30
2019-01-19T10:12:48.504Z,19.83
2019-01-19T10:15:19.042Z,18.30
2019-01-19T10:17:47.491Z,18.90
2019-01-19T10:20:30.296Z,18.17
2019-01-19T10:22:58.744Z,19.30
2019-01-19T10:25:27.170Z,18.10
2019-01-19T10:27:55.793Z,17.87
2019-01-19T10:30:28.563Z,17.87
2019-01-19T10:32:57.155Z,18.37
2019-01-19T10:35:25.651Z,18.40
2019-01-19T10:37:56.514Z,18.00
2019-01-19T10:40:24.407Z,18.60
2019-01-19T10:42:52.834Z,18.47
2019-01-19T10:45:23.993Z,17.53
2019-01-19T10:47:52.488Z,17.70
2019-01-19T10:50:21.005Z,16.30
2019-01-19T10:52:49.502Z,16.60
2019-01-19T10:55:20.295Z,16.57
2019-01-19T10:57:48.863Z,17.07
2019-01-19T11:00:20.020Z,17.70
2019-01-19T11:02:48.514Z,17.70
2019-01-19T11:05:17.033Z,17.60
2019-01-19T11:07:47.097Z,17.70
2019-01-19T11:10:18.091Z,17.27
2019-01-19T11:12:46.576Z,18.03
2019-01-19T11:15:17.569Z,17.53
2019-01-19T11:17:45.992Z,15.90
2019-01-19T11:20:19.909Z,17.73
2019-01-19T11:22:48.331Z,17.30
2019-01-19T11:25:17.014Z,17.80
2019-01-19T11:27:45.501Z,17.20
2019-01-19T11:30:28.028Z,17.30
2019-01-19T11:32:56.521Z,16.97
2019-01-19T11:35:25.052Z,17.53
2019-01-19T11:37:53.618Z,17.17
2019-01-19T11:40:24.607Z,17.67
2019-01-19T11:42:53.030Z,15.80
2019-01-19T11:45:22.929Z,16.83
2019-01-19T11:47:51.417Z,16.57
2019-01-19T11:50:20.000Z,16.20
2019-01-19T11:52:48.597Z,16.53
2019-01-19T11:55:19.229Z,16.53
2019-01-19T11:57:49.311Z,17.70
2019-01-19T12:00:20.044Z,18.23
2019-01-19T12:02:48.555Z,15.97
2019-01-19T12:05:17.047Z,16.33
2019-01-19T12:07:45.499Z,16.60
2019-01-19T12:10:22.132Z,17.00
2019-01-19T12:12:50.586Z,16.07
2019-01-19T12:15:19.083Z,17.60
2019-01-19T12:17:47.598Z,16.90
2019-01-19T12:20:21.274Z,17.10
2019-01-19T12:22:49.860Z,17.70
2019-01-19T12:25:25.710Z,16.90
2019-01-19T12:27:54.396Z,16.93
2019-01-19T12:30:27.955Z,17.43
2019-01-19T12:32:56.470Z,18.77
2019-01-19T12:35:24.957Z,18.60
2019-01-19T12:37:53.745Z,17.67
2019-01-19T12:40:24.315Z,18.03
2019-01-19T12:42:55.604Z,19.40
2019-01-19T12:45:39.265Z,18.27
2019-01-19T12:48:07.718Z,18.47
2019-01-19T12:50:36.228Z,18.97
2019-01-19T12:53:04.849Z,18.10
2019-01-19T12:55:33.605Z,17.67
2019-01-19T12:58:02.129Z,17.50
2019-01-19T13:00:30.612Z,15.50
2019-01-19T13:02:59.065Z,17.53
2019-01-19T13:05:30.662Z,17.37
2019-01-19T13:07:59.413Z,15.93
2019-01-19T13:10:33.701Z,16.33
2019-01-19T13:13:03.301Z,16.37
2019-01-19T13:15:49.620Z,17.37
2019-01-19T13:18:42.160Z,17.43
2019-01-19T13:21:30.242Z,16.70
2019-01-19T13:24:21.228Z,17.60
2019-01-19T13:27:12.166Z,17.70
2019-01-19T13:29:46.642Z,16.80
2019-01-19T13:32:18.242Z,15.47
2019-01-19T13:34:49.867Z,17.37
2019-01-19T13:37:33.191Z,16.80
2019-01-19T13:40:10.017Z,16.10
2019-01-19T13:42:59.495Z,18.00
2019-01-19T13:45:49.128Z,16.40
2019-01-19T13:48:32.933Z,16.13
2019-01-19T13:51:10.229Z,17.50
2019-01-19T13:53:56.933Z,17.10
2019-01-19T13:56:31.405Z,16.37
2019-01-19T13:59:09.006Z,17.30
2019-01-19T14:01:43.543Z,16.90
2019-01-19T14:04:24.050Z,17.30
2019-01-19T14:06:58.670Z,17.13
2019-01-19T14:09:36.199Z,17.83
2019-01-19T14:12:19.603Z,16.90
2019-01-19T14:14:56.912Z,17.03
2019-01-19T14:17:40.090Z,15.97
2019-01-19T14:20:28.364Z,17.07
2019-01-19T14:23:27.767Z,16.00
2019-01-19T14:26:26.366Z,17.57
2019-01-19T14:29:16.894Z,17.43
2019-01-19T14:31:51.115Z,17.00
2019-01-19T14:34:28.633Z,16.30
2019-01-19T14:37:15.085Z,16.70
2019-01-19T14:40:01.687Z,16.30
2019-01-19T14:42:36.253Z,17.87
2019-01-19T14:45:25.555Z,16.70
2019-01-19T14:48:06.269Z,16.13
2019-01-19T14:50:43.471Z,17.40
2019-01-19T14:53:18.136Z,16.80
2019-01-19T14:56:14.091Z,16.93
2019-01-19T14:59:09.985Z,16.90
2019-01-19T15:01:56.425Z,17.77
2019-01-19T15:04:30.835Z,16.67
2019-01-19T15:07:14.011Z,16.60
2019-01-19T15:09:57.501Z,17.53
2019-01-19T15:12:34.852Z,18.07
2019-01-19T15:15:09.111Z,18.37
2019-01-19T15:18:05.225Z,18.30
2019-01-19T15:20:45.969Z,16.70
2019-01-19T15:23:29.619Z,18.17
2019-01-19T15:26:06.976Z,17.60
2019-01-19T15:28:53.524Z,19.40
2019-01-19T15:31:30.686Z,18.87
2019-01-19T15:34:05.120Z,17.00
2019-01-19T15:37:02.360Z,19.10
2019-01-19T15:39:33.992Z,18.10
2019-01-19T15:42:30.926Z,19.70
2019-01-19T15:45:31.386Z,18.90
2019-01-19T15:48:14.683Z,16.57
2019-01-19T15:51:10.395Z,16.77
2019-01-19T15:53:42.023Z,15.83
2019-01-19T15:56:43.782Z,13.30
2019-01-19T15:59:36.357Z,12.90
2019-01-19T16:02:16.680Z,13.97
2019-01-19T16:05:09.356Z,15.00
2019-01-19T16:07:47.097Z,16.67
2019-01-19T16:10:39.821Z,19.33
2019-01-19T16:13:14.219Z,24.67
2019-01-19T16:16:13.298Z,19.70
2019-01-19T16:18:47.879Z,15.30
2019-01-19T16:21:28.377Z,16.87
2019-01-19T16:24:05.807Z,55.20
2019-01-19T16:26:58.294Z,23.00
2019-01-19T16:29:44.783Z,18.90
2019-01-19T16:32:31.300Z,17.77
2019-01-19T16:35:25.730Z,17.77
2019-01-19T16:38:02.655Z,33.20
2019-01-19T16:40:49.121Z,28.40
2019-01-19T16:43:35.822Z,27.77
2019-01-19T16:46:16.163Z,27.70
2019-01-19T16:49:07.232Z,28.27
2019-01-19T16:51:44.761Z,19.30
2019-01-19T16:54:26.001Z,15.60
2019-01-19T16:57:03.866Z,12.40
2019-01-19T16:59:57.005Z,14.93
2019-01-19T17:02:52.905Z,14.90
2019-01-19T17:05:27.367Z,19.77
2019-01-19T17:08:01.693Z,21.37
2019-01-19T17:10:38.982Z,22.57
2019-01-19T17:13:27.369Z,17.70
2019-01-19T17:16:24.692Z,18.43
2019-01-19T17:19:14.601Z,16.97
2019-01-19T17:21:54.987Z,25.50
2019-01-19T17:24:38.616Z,26.20
2019-01-19T17:27:16.084Z,15.60
2019-01-19T17:29:53.625Z,12.80
2019-01-19T17:32:32.818Z,12.83
2019-01-19T17:35:22.610Z,14.55
2019-01-19T17:38:09.230Z,15.50
2019-01-19T17:41:03.344Z,14.10
2019-01-19T17:43:40.922Z,14.07
2019-01-19T17:46:15.295Z,14.33
2019-01-19T17:48:49.740Z,18.48
2019-01-19T17:51:44.103Z,14.40
2019-01-19T17:54:21.540Z,15.27
2019-01-19T17:57:10.114Z,14.47
2019-01-19T18:00:16.451Z,15.00
2019-01-19T18:02:56.846Z,14.10
2019-01-19T18:05:40.433Z,15.13
2019-01-19T18:08:31.429Z,14.43
2019-01-19T18:11:19.513Z,13.40
2019-01-19T18:13:56.757Z,13.23
2019-01-19T18:16:50.853Z,14.23
2019-01-19T18:19:25.480Z,17.00
2019-01-19T18:22:28.833Z,15.85
2019-01-19T18:25:06.464Z,14.70
2019-01-19T18:27:53.344Z,15.30
2019-01-19T18:30:51.277Z,14.33
2019-01-19T18:33:25.974Z,14.58
2019-01-19T18:36:12.620Z,14.40
2019-01-19T18:38:49.935Z,15.65
2019-01-19T18:41:36.426Z,15.55
2019-01-19T18:44:16.793Z,14.80
2019-01-19T18:46:57.630Z,16.07
2019-01-19T18:49:52.007Z,15.17
2019-01-19T18:52:26.467Z,16.32
2019-01-19T18:55:03.993Z,16.07
2019-01-19T18:57:53.773Z,17.10
2019-01-19T19:00:37.267Z,16.90
2019-01-19T19:03:14.430Z,16.57
2019-01-19T19:05:55.371Z,16.55
2019-01-19T19:08:36.020Z,16.27
2019-01-19T19:11:19.355Z,16.70
2019-01-19T19:14:11.922Z,16.48
2019-01-19T19:16:48.974Z,15.93
2019-01-19T19:19:32.055Z,15.40
2019-01-19T19:22:09.721Z,14.28
2019-01-19T19:24:49.967Z,14.28
2019-01-19T19:27:30.431Z,14.00
2019-01-19T19:30:04.719Z,14.87
2019-01-19T19:32:42.330Z,13.88
2019-01-19T19:35:16.623Z,14.50
2019-01-19T19:37:54.290Z,14.30
2019-01-19T19:40:44.009Z,15.10
2019-01-19T19:43:18.643Z,15.58
2019-01-19T19:45:55.968Z,14.55
2019-01-19T19:48:42.717Z,14.45
2019-01-19T19:51:43.096Z,13.68
2019-01-19T19:54:11.630Z,14.03
2019-01-19T19:56:39.037Z,13.60
2019-01-19T19:59:07.566Z,13.38
2019-01-19T20:01:36.007Z,13.72
2019-01-19T20:04:04.540Z,13.35
2019-01-19T20:06:32.977Z,14.55
2019-01-19T20:09:01.504Z,14.07
2019-01-19T20:11:30.410Z,12.93
2019-01-19T20:13:58.874Z,14.55
2019-01-19T20:16:27.309Z,14.50
2019-01-19T20:18:55.769Z,17.12
2019-01-19T20:21:24.282Z,15.90
2019-01-19T20:23:52.742Z,16.07
2019-01-19T20:26:21.551Z,17.00
2019-01-19T20:28:50.012Z,16.90
2019-01-19T20:31:18.450Z,15.98
2019-01-19T20:33:46.909Z,18.52
2019-01-19T20:36:15.350Z,18.42
2019-01-19T20:38:43.818Z,18.57
2019-01-19T20:41:12.253Z,18.23
2019-01-19T20:43:40.721Z,18.40
2019-01-19T20:46:09.169Z,18.75
2019-01-19T20:48:37.806Z,18.15
2019-01-19T20:51:06.317Z,18.90
2019-01-19T20:53:34.829Z,20.10
2019-01-19T20:56:03.337Z,19.17
2019-01-19T20:58:31.763Z,17.67
2019-01-19T21:01:00.226Z,18.82
2019-01-19T21:03:28.663Z,19.20
2019-01-19T21:05:57.120Z,17.37
2019-01-19T21:08:25.556Z,20.82
2019-01-19T21:10:54.015Z,19.65
2019-01-19T21:13:22.452Z,19.10
2019-01-19T21:15:50.910Z,18.90
2019-01-19T21:18:19.354Z,19.25
2019-01-19T21:20:47.823Z,18.25
2019-01-19T21:23:16.254Z,17.35
2019-01-19T21:25:44.721Z,19.02
2019-01-19T21:28:13.160Z,18.15
2019-01-19T21:30:41.627Z,19.60
2019-01-19T21:33:10.064Z,18.77
2019-01-19T21:35:38.521Z,19.02
2019-01-19T21:38:07.025Z,19.82
2019-01-19T21:40:39.199Z,20.68
2019-01-19T21:43:05.643Z,18.83
2019-01-19T21:45:34.102Z,18.65
2019-01-19T21:48:02.542Z,18.57
2019-01-19T21:50:31.000Z,17.80
2019-01-19T21:52:59.435Z,18.10
2019-01-19T21:55:27.892Z,17.77
2019-01-19T21:57:56.335Z,16.37
2019-01-19T22:00:24.775Z,18.35
2019-01-19T22:02:53.309Z,18.30
2019-01-19T22:05:21.809Z,17.17
2019-01-19T22:07:50.345Z,17.45
2019-01-19T22:10:22.660Z,19.05
2019-01-19T22:12:51.301Z,18.25
2019-01-19T22:15:20.097Z,18.20
2019-01-19T22:17:48.558Z,18.23
2019-01-19T22:20:18.240Z,16.82
2019-01-19T22:22:46.876Z,17.70
2019-01-19T22:25:15.383Z,17.32
2019-01-19T22:27:45.487Z,18.50
2019-01-19T22:30:16.572Z,18.30
2019-01-19T22:32:45.028Z,19.48
2019-01-19T22:35:13.634Z,18.57
2019-01-19T22:37:42.162Z,18.85
2019-01-19T22:40:13.913Z,18.70
2019-01-19T22:42:42.370Z,18.02
2019-01-19T22:45:12.652Z,17.80
2019-01-19T22:47:41.113Z,19.30
2019-01-19T22:50:12.408Z,18.95
2019-01-19T22:52:40.862Z,19.27
2019-01-19T22:55:09.537Z,18.07
2019-01-19T22:57:38.004Z,19.35
2019-01-19T23:00:57.238Z,18.85
2019-01-19T23:03:26.139Z,19.42
2019-01-19T23:05:54.578Z,18.95
2019-01-19T23:08:23.040Z,19.30
2019-01-19T23:10:51.479Z,17.80
2019-01-19T23:13:19.941Z,20.27
2019-01-19T23:15:48.451Z,19.48
2019-01-19T23:18:16.973Z,18.70
2019-01-19T23:20:45.486Z,19.80
2019-01-19T23:23:13.950Z,18.50
2019-01-19T23:25:42.387Z,19.90
2019-01-19T23:28:10.848Z,19.55
2019-01-19T23:30:39.285Z,17.82
2019-01-19T23:33:07.747Z,19.25
2019-01-19T23:35:36.188Z,19.57
2019-01-19T23:38:04.681Z,19.12
2019-01-19T23:40:33.123Z,18.17
2019-01-19T23:43:01.558Z,19.35
2019-01-19T23:45:30.025Z,16.93
2019-01-19T23:47:58.461Z,19.17
2019-01-19T23:50:26.931Z,19.70
2019-01-19T23:52:55.363Z,17.48
2019-01-19T23:55:23.828Z,19.55
2019-01-19T23:57:52.258Z,18.90
